Time;durP1;ratioP1;P1;durP2;ratioP2;P2;SDS_P1;SDS_P2;PMS_P1;PMS_P2;Temp;Humidity;BMP_temperature;BMP_pressure;BME280_temperature;BME280_humidity;BME280_pressure;Samples;Min_cycle;Max_cycle;Signal;HPM_P1;HPM_P2
2021/04/30 00:01:52;;;;;;;9.60;5.05;;;384.60;2329.60;;;;;;5093102;28;20020;-58
2021/04/30 00:04:18;;;;;;;9.98;6.38;;;384.50;2252.80;;;;;;5092810;28;20040;-58
2021/04/30 00:06:44;;;;;;;11.93;5.03;;;384.50;2278.40;;;;;;5093020;28;20036;-58
2021/04/30 00:09:09;;;;;;;11.45;5.40;;;384.50;2278.40;;;;;;5093160;28;20027;-58
2021/04/30 00:11:35;;;;;;;9.68;5.28;;;384.60;2227.20;;;;;;5092965;28;20478;-59
2021/04/30 00:14:01;;;;;;;11.73;8.05;;;384.60;2227.20;;;;;;5093310;28;20080;-58
2021/04/30 00:16:26;;;;;;;12.02;6.55;;;384.60;2252.80;;;;;;5092822;28;20415;-58
2021/04/30 00:18:52;;;;;;;11.02;5.22;;;384.70;2227.20;;;;;;5092784;28;20512;-58
2021/04/30 00:21:18;;;;;;;7.15;4.35;;;384.60;2252.80;;;;;;5092808;28;20042;-58
2021/04/30 00:23:45;;;;;;;10.43;4.60;;;384.60;2252.80;;;;;;5092839;28;20504;-58
2021/04/30 00:26:10;;;;;;;11.07;4.45;;;384.70;2201.60;;;;;;5092884;28;20032;-59
2021/04/30 00:28:36;;;;;;;8.75;5.07;;;384.70;2252.80;;;;;;5092618;28;20039;-58
2021/04/30 00:31:02;;;;;;;8.48;4.35;;;384.70;2201.60;;;;;;5092796;28;20378;-59
2021/04/30 00:33:29;;;;;;;6.82;4.60;;;384.80;2176.00;;;;;;5092304;28;20020;-58
2021/04/30 00:35:55;;;;;;;8.38;4.65;;;384.80;2176.00;;;;;;5092514;28;20028;-59
2021/04/30 00:38:21;;;;;;;8.95;5.90;;;384.80;2252.80;;;;;;5092741;28;20413;-59
2021/04/30 00:40:48;;;;;;;9.80;5.60;;;384.80;2201.60;;;;;;5092290;28;20028;-59
2021/04/30 00:43:15;;;;;;;12.90;5.90;;;384.90;2176.00;;;;;;5092451;28;20477;-58
2021/04/30 00:45:41;;;;;;;8.35;4.97;;;384.70;2278.40;;;;;;5092565;28;20032;-58
2021/04/30 00:48:11;;;;;;;7.13;4.32;;;384.70;2278.40;;;;;;5092146;28;20028;-58
2021/04/30 00:50:37;;;;;;;8.80;4.65;;;384.70;2278.40;;;;;;5092473;28;20028;-59
2021/04/30 00:53:03;;;;;;;8.77;4.35;;;384.70;2278.40;;;;;;5092333;28;20024;-58
2021/04/30 00:55:29;;;;;;;11.63;4.55;;;384.60;2304.00;;;;;;5091882;28;20027;-58
2021/04/30 00:57:57;;;;;;;11.27;5.53;;;384.50;2304.00;;;;;;5092217;28;20040;-59
2021/04/30 01:00:25;;;;;;;6.88;4.03;;;384.50;2304.00;;;;;;5092301;28;20103;-59
2021/04/30 01:02:52;;;;;;;7.97;4.32;;;384.40;2329.60;;;;;;5091873;28;20048;-58
2021/04/30 01:05:18;;;;;;;15.70;4.15;;;384.40;2304.00;;;;;;5091598;28;20039;-59
2021/04/30 01:07:45;;;;;;;8.57;3.90;;;384.50;2278.40;;;;;;5092066;28;20032;-59
2021/04/30 01:10:12;;;;;;;8.13;3.78;;;384.50;2252.80;;;;;;5092221;28;20024;-59
2021/04/30 01:12:38;;;;;;;7.82;4.65;;;384.50;2227.20;;;;;;5091799;28;20052;-59
2021/04/30 01:15:04;;;;;;;7.43;4.22;;;384.70;2201.60;;;;;;5091959;28;20031;-59
2021/04/30 01:17:30;;;;;;;11.35;4.80;;;384.70;2201.60;;;;;;5091613;28;20040;-58
2021/04/30 01:19:57;;;;;;;20.40;8.50;;;384.80;2252.80;;;;;;5073042;28;20028;-59
2021/04/30 01:22:35;;;;;;;8.48;4.75;;;384.80;2252.80;;;;;;5091937;28;20024;-59
2021/04/30 01:25:01;;;;;;;13.18;5.70;;;384.80;2252.80;;;;;;5091611;28;20024;-59
2021/04/30 01:27:27;;;;;;;11.45;5.15;;;384.80;2252.80;;;;;;5091462;28;20029;-58
2021/04/30 01:29:52;;;;;;;11.48;4.95;;;384.70;2304.00;;;;;;5091516;28;20083;-58
2021/04/30 01:32:18;;;;;;;7.57;4.95;;;384.70;2278.40;;;;;;5091235;28;20031;-58
2021/04/30 01:34:44;;;;;;;8.88;4.28;;;384.80;2304.00;;;;;;5091437;28;20048;-58
2021/04/30 01:37:11;;;;;;;8.90;4.53;;;384.70;2252.80;;;;;;5091293;28;20086;-58
2021/04/30 01:39:36;;;;;;;10.32;5.03;;;384.80;2227.20;;;;;;5091340;28;20065;-58
2021/04/30 01:42:05;;;;;;;12.02;5.15;;;384.70;2278.40;;;;;;5091320;28;20016;-58
2021/04/30 01:44:31;;;;;;;11.98;4.43;;;384.80;2252.80;;;;;;5091382;28;20031;-58
2021/04/30 01:46:59;;;;;;;7.32;4.28;;;384.80;2252.80;;;;;;5090996;28;20466;-59
2021/04/30 01:49:25;;;;;;;7.45;4.78;;;384.80;2278.40;;;;;;5091149;28;20807;-58
2021/04/30 01:51:51;;;;;;;10.60;6.38;;;384.70;2329.60;;;;;;5091246;28;20028;-59
2021/04/30 01:54:16;;;;;;;12.25;6.63;;;384.60;2329.60;;;;;;5090738;28;20173;-59
2021/04/30 01:56:42;;;;;;;13.20;5.70;;;384.50;2329.60;;;;;;5090892;28;20032;-59
2021/04/30 01:59:08;;;;;;;6.47;3.97;;;384.50;2304.00;;;;;;5090849;28;20024;-59
2021/04/30 02:01:34;;;;;;;8.18;4.25;;;384.40;2329.60;;;;;;5090917;28;20107;-59
2021/04/30 02:03:59;;;;;;;9.50;4.10;;;384.50;2278.40;;;;;;5090858;28;20123;-59
2021/04/30 02:06:26;;;;;;;8.02;4.20;;;384.60;2304.00;;;;;;5090708;28;20032;-59
2021/04/30 02:08:53;;;;;;;8.43;4.47;;;384.50;2278.40;;;;;;5090924;28;20024;-57
2021/04/30 02:11:19;;;;;;;13.75;5.35;;;384.60;2278.40;;;;;;5090494;28;20500;-58
2021/04/30 02:13:45;;;;;;;14.95;7.63;;;384.70;2304.00;;;;;;5090602;28;20032;-59
2021/04/30 02:16:10;;;;;;;9.38;4.25;;;384.80;2278.40;;;;;;5090464;28;20039;-58
2021/04/30 02:18:36;;;;;;;7.25;4.30;;;384.80;2278.40;;;;;;5090208;28;20050;-58
2021/04/30 02:21:02;;;;;;;9.45;4.35;;;384.70;2304.00;;;;;;5090826;28;20027;-57
2021/04/30 02:23:27;;;;;;;6.97;3.90;;;384.70;2227.20;;;;;;5090601;28;20473;-59
2021/04/30 02:25:53;;;;;;;9.68;5.55;;;384.70;2252.80;;;;;;5072023;28;20465;-58
2021/04/30 02:28:19;;;;;;;30.15;18.50;;;384.70;2278.40;;;;;;5090251;28;20034;-58
2021/04/30 02:30:45;;;;;;;30.42;19.65;;;384.70;2278.40;;;;;;5090266;28;20024;-58
2021/04/30 02:33:12;;;;;;;19.10;12.70;;;384.70;2252.80;;;;;;5090544;28;20421;-58
2021/04/30 02:35:44;;;;;;;21.38;9.02;;;384.80;2201.60;;;;;;5090346;28;20027;-58
2021/04/30 02:38:12;;;;;;;13.25;7.35;;;384.90;2201.60;;;;;;5090467;28;20181;-58
2021/04/30 02:40:39;;;;;;;5.82;3.60;;;384.90;2201.60;;;;;;5090391;28;20024;-59
2021/04/30 02:43:08;;;;;;;5.90;2.90;;;384.90;2073.60;;;;;;5090434;28;20400;-59
2021/04/30 02:45:33;;;;;;;7.43;3.45;;;409.70;2022.40;;;;;;5090234;28;20020;-58
2021/04/30 02:48:00;;;;;;;9.77;3.38;;;409.70;2048.00;;;;;;5089984;28;20031;-59
2021/04/30 02:50:30;;;;;;;8.05;3.88;;;409.70;2124.80;;;;;;5090223;28;20093;-59
2021/04/30 02:52:57;;;;;;;6.38;2.80;;;409.70;2176.00;;;;;;5090113;28;20024;-58
2021/04/30 02:55:24;;;;;;;5.63;3.70;;;409.60;2150.40;;;;;;5089980;28;20020;-58
2021/04/30 02:57:58;;;;;;;6.38;3.60;;;409.60;2150.40;;;;;;5072348;28;20476;-58
2021/04/30 03:00:26;;;;;;;5.30;3.33;;;409.60;2176.00;;;;;;5090338;28;20020;-59
2021/04/30 03:02:52;;;;;;;14.23;6.85;;;384.90;2176.00;;;;;;5090251;28;20048;-59
2021/04/30 03:05:18;;;;;;;16.83;8.90;;;384.80;2252.80;;;;;;5090191;28;20435;-58
2021/04/30 03:07:44;;;;;;;17.38;11.55;;;384.40;2329.60;;;;;;5090120;28;20056;-58
2021/04/30 03:10:10;;;;;;;12.35;7.60;;;384.50;2329.60;;;;;;5090219;28;20055;-58
2021/04/30 03:12:36;;;;;;;19.90;8.35;;;384.50;2329.60;;;;;;5089954;28;20035;-62
2021/04/30 03:15:03;;;;;;;14.63;8.32;;;384.50;2329.60;;;;;;5090117;28;20024;-61
2021/04/30 03:17:30;;;;;;;18.67;11.07;;;384.50;2329.60;;;;;;5089938;28;20047;-61
2021/04/30 03:19:56;;;;;;;19.52;11.98;;;384.40;2329.60;;;;;;5072169;28;20055;-61
2021/04/30 03:22:21;;;;;;;15.88;8.60;;;384.40;2329.60;;;;;;5090311;28;20466;-61
2021/04/30 03:24:48;;;;;;;15.25;8.13;;;384.40;2329.60;;;;;;5089650;28;20024;-69
2021/04/30 03:27:13;;;;;;;11.68;7.55;;;384.40;2329.60;;;;;;5090109;28;20056;-58
2021/04/30 03:29:39;;;;;;;14.32;9.25;;;384.40;2329.60;;;;;;5093433;28;20424;-58
2021/04/30 03:32:08;;;;;;;17.50;9.75;;;384.50;2329.60;;;;;;5093582;28;20097;-59
2021/04/30 03:34:37;;;;;;;9.95;6.13;;;384.50;2329.60;;;;;;5094072;28;20024;-58
2021/04/30 03:37:04;;;;;;;9.93;6.15;;;384.60;2329.60;;;;;;5096801;28;20028;-59
2021/04/30 03:39:29;;;;;;;11.75;6.07;;;384.60;2329.60;;;;;;5095179;28;20024;-59
2021/04/30 03:41:55;;;;;;;11.00;5.07;;;384.60;2329.60;;;;;;5096311;28;20032;-59
2021/04/30 03:44:21;;;;;;;9.93;5.13;;;384.60;2329.60;;;;;;5097443;28;20435;-58
2021/04/30 03:46:47;;;;;;;13.38;5.53;;;384.60;2304.00;;;;;;5099904;28;20393;-63
2021/04/30 03:49:12;;;;;;;10.05;4.57;;;384.60;2329.60;;;;;;5099606;28;20024;-59
2021/04/30 03:51:38;;;;;;;8.85;4.80;;;384.70;2304.00;;;;;;5097002;28;20098;-60
2021/04/30 03:54:04;;;;;;;18.65;5.10;;;384.70;2304.00;;;;;;5093584;28;20031;-61
2021/04/30 03:56:30;;;;;;;6.45;3.83;;;384.80;2304.00;;;;;;5092996;28;20097;-58
2021/04/30 03:58:56;;;;;;;9.23;7.00;;;384.80;2304.00;;;;;;5092842;28;20028;-59
2021/04/30 04:01:21;;;;;;;23.83;18.65;;;384.80;2329.60;;;;;;5092621;28;20031;-59
2021/04/30 04:03:47;;;;;;;11.10;6.97;;;384.70;2329.60;;;;;;5092616;28;20051;-59
2021/04/30 04:06:13;;;;;;;12.52;5.57;;;384.70;2329.60;;;;;;5093590;28;20374;-64
2021/04/30 04:08:38;;;;;;;12.02;5.15;;;384.70;2329.60;;;;;;5095497;28;20031;-58
2021/04/30 04:11:04;;;;;;;6.40;4.15;;;384.70;2329.60;;;;;;5101767;28;20031;-58
2021/04/30 04:13:30;;;;;;;8.50;5.43;;;384.70;2329.60;;;;;;5100425;28;20497;-58
2021/04/30 04:15:59;;;;;;;13.93;4.63;;;384.70;2329.60;;;;;;5098378;28;20042;-60
2021/04/30 04:18:25;;;;;;;11.15;6.45;;;384.60;2329.60;;;;;;5098693;28;20509;-59
2021/04/30 04:20:51;;;;;;;9.10;5.07;;;384.70;2329.60;;;;;;5096401;28;20020;-58
2021/04/30 04:23:17;;;;;;;8.40;4.80;;;384.70;2329.60;;;;;;5091914;28;20025;-59
2021/04/30 04:25:43;;;;;;;10.40;4.90;;;384.80;2329.60;;;;;;5091818;28;20020;-59
2021/04/30 04:28:09;;;;;;;11.57;5.00;;;384.90;2329.60;;;;;;5091875;28;20495;-59
2021/04/30 04:30:35;;;;;;;10.27;4.97;;;409.60;2355.20;;;;;;5091816;28;20031;-59
2021/04/30 04:33:01;;;;;;;10.23;5.47;;;409.70;2329.60;;;;;;5091740;28;20020;-59
2021/04/30 04:35:28;;;;;;;10.70;4.75;;;409.80;2355.20;;;;;;5091569;28;20038;-59
2021/04/30 04:37:53;;;;;;;13.20;6.05;;;409.70;2355.20;;;;;;5091848;28;20039;-59
2021/04/30 04:40:19;;;;;;;14.68;5.68;;;409.90;2355.20;;;;;;5090928;28;20020;-60
2021/04/30 04:42:45;;;;;;;9.13;4.95;;;409.90;2355.20;;;;;;5091696;28;20028;-59
2021/04/30 04:45:13;;;;;;;10.80;5.53;;;409.90;2355.20;;;;;;5091824;28;20485;-59
2021/04/30 04:47:38;;;;;;;11.15;6.20;;;410.00;2355.20;;;;;;5091377;28;20038;-59
2021/04/30 04:50:05;;;;;;;12.80;7.05;;;409.80;2355.20;;;;;;5091870;28;20024;-59
2021/04/30 04:52:31;;;;;;;17.15;11.15;;;409.70;2355.20;;;;;;5091343;28;20431;-59
2021/04/30 04:54:57;;;;;;;12.65;8.07;;;409.70;2355.20;;;;;;5091063;28;20525;-60
2021/04/30 04:57:23;;;;;;;12.27;5.85;;;409.80;2355.20;;;;;;5091222;28;20051;-59
2021/04/30 04:59:48;;;;;;;10.35;6.05;;;409.70;2355.20;;;;;;5091238;28;20052;-60
2021/04/30 05:02:14;;;;;;;11.38;7.05;;;409.70;2355.20;;;;;;5091450;28;20070;-59
2021/04/30 05:04:40;;;;;;;10.90;5.82;;;409.70;2355.20;;;;;;5091308;28;20075;-59
2021/04/30 05:07:06;;;;;;;11.00;5.82;;;409.80;2355.20;;;;;;5091145;28;20016;-60
2021/04/30 05:09:31;;;;;;;11.73;5.68;;;409.90;2355.20;;;;;;5091506;28;20028;-60
2021/04/30 05:11:57;;;;;;;9.32;5.57;;;410.10;2355.20;;;;;;5091101;28;20081;-59
2021/04/30 05:14:23;;;;;;;11.88;5.88;;;410.30;2355.20;;;;;;5091050;28;20535;-60
2021/04/30 05:16:49;;;;;;;11.60;8.07;;;410.50;2355.20;;;;;;5090523;28;20036;-60
2021/04/30 05:19:16;;;;;;;9.95;5.50;;;435.30;2355.20;;;;;;5091164;28;20020;-59
2021/04/30 05:21:44;;;;;;;9.90;5.28;;;435.30;2355.20;;;;;;5090689;28;20359;-61
2021/04/30 05:24:14;;;;;;;10.23;5.07;;;435.30;2329.60;;;;;;5090613;28;20178;-59
2021/04/30 05:26:41;;;;;;;10.68;4.95;;;435.20;2355.20;;;;;;5090492;28;20036;-59
2021/04/30 05:29:07;;;;;;;14.55;4.20;;;435.60;2355.20;;;;;;5090426;28;20031;-59
2021/04/30 05:31:36;;;;;;;6.22;4.10;;;410.50;2304.00;;;;;;5091031;28;20117;-59
2021/04/30 05:34:02;;;;;;;9.15;4.68;;;410.30;2304.00;;;;;;5091559;28;20433;-59
2021/04/30 05:36:29;;;;;;;8.82;4.30;;;410.50;2252.80;;;;;;5090567;28;20067;-61
2021/04/30 05:38:54;;;;;;;6.07;3.67;;;410.50;2252.80;;;;;;5091632;28;20019;-58
2021/04/30 05:41:20;;;;;;;7.35;4.25;;;410.40;2304.00;;;;;;5091610;28;20032;-59
2021/04/30 05:43:46;;;;;;;9.75;4.75;;;410.40;2278.40;;;;;;5091710;28;20142;-59
2021/04/30 05:46:12;;;;;;;6.88;4.25;;;410.50;2227.20;;;;;;5091030;28;20462;-58
2021/04/30 05:48:37;;;;;;;8.45;4.05;;;435.20;2201.60;;;;;;5090057;28;20021;-59
2021/04/30 05:51:03;;;;;;;5.55;4.15;;;435.70;2150.40;;;;;;5090746;28;20051;-65
2021/04/30 05:53:29;;;;;;;13.70;8.52;;;460.90;2073.60;;;;;;5090674;28;20488;-64
2021/04/30 05:55:55;;;;;;;22.02;14.75;;;486.90;1894.40;;;;;;5089630;28;20131;-67
2021/04/30 05:58:21;;;;;;;44.00;34.40;;;588.80;1561.60;;;;;;5071563;28;20389;-66
2021/04/30 06:00:46;;;;;;;14.00;9.88;;;666.10;1254.40;;;;;;5063246;28;20479;-66
2021/04/30 06:03:12;;;;;;;22.23;12.98;;;691.50;1152.00;;;;;;5076726;28;20118;-69
2021/04/30 06:05:38;;;;;;;27.85;23.65;;;717.30;1075.20;;;;;;5080296;28;20023;-68
2021/04/30 06:08:04;;;;;;;22.65;19.88;;;768.00;947.20;;;;;;5060262;28;20032;-68
2021/04/30 06:10:30;;;;;;;12.20;9.38;;;717.50;1049.60;;;;;;5064385;28;20024;-68
2021/04/30 06:12:58;;;;;;;111.82;94.82;;;716.80;1075.20;;;;;;5070485;28;20024;-68
2021/04/30 06:15:24;;;;;;;675.10;488.25;;;717.10;1075.20;;;;;;5070610;28;20021;-68
2021/04/30 06:17:50;;;;;;;26.67;22.52;;;819.30;921.60;;;;;;5064331;28;20439;-67
2021/04/30 06:20:16;;;;;;;202.57;184.40;;;870.50;844.80;;;;;;5065678;28;20066;-68
2021/04/30 06:22:41;;;;;;;23.27;21.15;;;896.50;742.40;;;;;;5063536;28;20047;-68
2021/04/30 06:25:07;;;;;;;23.67;21.42;;;896.90;742.40;;;;;;5058009;28;20063;-67
2021/04/30 06:27:33;;;;;;;24.63;22.50;;;947.70;691.20;;;;;;5061148;28;20032;-70
2021/04/30 06:29:59;;;;;;;15.73;14.45;;;973.30;665.60;;;;;;5053387;28;20025;-69
2021/04/30 06:32:25;;;;;;;15.13;13.82;;;973.70;640.00;;;;;;5050859;28;20925;-69
2021/04/30 06:34:50;;;;;;;17.55;15.75;;;998.80;640.00;;;;;;5050408;28;20021;-66
2021/04/30 06:37:17;;;;;;;22.30;20.60;;;999.10;614.40;;;;;;5049859;28;20086;-69
2021/04/30 06:39:43;;;;;;;21.85;19.83;;;1024.10;588.80;;;;;;5050338;28;20114;-68
2021/04/30 06:42:09;;;;;;;22.15;20.15;;;973.40;640.00;;;;;;5063208;28;20031;-67
2021/04/30 06:44:35;;;;;;;20.92;18.92;;;998.40;640.00;;;;;;5090380;28;20023;-69
2021/04/30 06:47:00;;;;;;;25.60;19.63;;;998.40;614.40;;;;;;5090086;28;20507;-69
2021/04/30 06:49:26;;;;;;;20.30;18.33;;;972.90;640.00;;;;;;5090185;28;20020;-67
2021/04/30 06:51:52;;;;;;;22.33;17.95;;;973.30;614.40;;;;;;5090111;28;20024;-67
2021/04/30 06:54:18;;;;;;;23.90;21.40;;;973.10;640.00;;;;;;5090169;28;20412;-67
2021/04/30 06:56:45;;;;;;;29.83;26.83;;;948.10;640.00;;;;;;5090189;28;20607;-66
2021/04/30 06:59:11;;;;;;;25.23;22.35;;;973.20;640.00;;;;;;5090078;28;20024;-67
2021/04/30 07:01:39;;;;;;;22.73;20.25;;;973.30;640.00;;;;;;5089945;28;20016;-68
2021/04/30 07:04:07;;;;;;;24.08;19.63;;;1024.40;563.20;;;;;;5092349;28;20126;-69
2021/04/30 07:06:34;;;;;;;20.98;18.98;;;1050.50;537.60;;;;;;5094098;28;20028;-67
2021/04/30 07:09:00;;;;;;;22.38;20.25;;;1049.80;537.60;;;;;;5093559;28;20107;-69
2021/04/30 07:11:25;;;;;;;25.27;19.08;;;1049.80;563.20;;;;;;5093186;28;20107;-66
2021/04/30 07:13:51;;;;;;;21.92;19.75;;;1049.70;563.20;;;;;;5093750;28;20048;-66
2021/04/30 07:16:17;;;;;;;23.85;21.52;;;1049.70;563.20;;;;;;5092788;28;20418;-69
2021/04/30 07:18:42;;;;;;;16.73;15.38;;;1075.80;512.00;;;;;;5093252;28;20091;-68
2021/04/30 07:21:09;;;;;;;18.58;16.58;;;1101.10;460.80;;;;;;5093445;28;20091;-68
2021/04/30 07:23:34;;;;;;;19.90;17.95;;;1101.20;486.40;;;;;;5096335;28;20024;-67
2021/04/30 07:26:01;;;;;;;18.27;16.65;;;1101.10;512.00;;;;;;5096855;28;20384;-66
2021/04/30 07:28:27;;;;;;;16.08;14.45;;;1101.50;486.40;;;;;;5096819;28;20040;-66
2021/04/30 07:30:53;;;;;;;16.25;14.50;;;1126.80;460.80;;;;;;5097087;28;20024;-67
2021/04/30 07:33:19;;;;;;;16.92;15.35;;;1152.20;460.80;;;;;;5097311;28;20028;-70
2021/04/30 07:35:45;;;;;;;17.95;16.35;;;1152.50;460.80;;;;;;5097027;28;20579;-68
2021/04/30 07:41:33;;;;;;;20.23;18.10;;;1127.30;486.40;;;;;;5096978;28;20035;-66
2021/04/30 07:43:58;;;;;;;19.15;17.35;;;1127.00;460.80;;;;;;5096562;28;20020;-69
2021/04/30 07:46:24;;;;;;;21.85;17.33;;;1126.90;460.80;;;;;;5096794;28;20031;-70
2021/04/30 07:48:50;;;;;;;19.38;17.45;;;1126.60;486.40;;;;;;5096799;28;20457;-68
2021/04/30 07:51:16;;;;;;;23.10;17.20;;;1127.30;460.80;;;;;;5096282;28;20035;-69
2021/04/30 07:53:42;;;;;;;16.65;14.68;;;1152.90;409.60;;;;;;5096472;28;20020;-68
2021/04/30 07:56:08;;;;;;;15.68;14.30;;;1152.40;435.20;;;;;;5096161;28;20024;-70
2021/04/30 07:58:35;;;;;;;17.10;15.48;;;1101.40;486.40;;;;;;5096682;28;20028;-65
2021/04/30 08:01:01;;;;;;;14.00;12.63;;;1152.50;460.80;;;;;;5096233;28;20031;-68
2021/04/30 08:03:26;;;;;;;14.77;13.18;;;1152.70;435.20;;;;;;5095959;28;20048;-66
2021/04/30 08:05:53;;;;;;;14.88;13.35;;;1177.60;409.60;;;;;;5095914;28;20103;-69
2021/04/30 08:11:40;;;;;;;12.05;10.73;;;1126.80;486.40;;;;;;5096297;28;20043;-66
2021/04/30 08:14:07;;;;;;;14.05;11.43;;;1126.80;460.80;;;;;;5095216;28;20020;-68
2021/04/30 08:16:34;;;;;;;14.23;10.73;;;1024.60;537.60;;;;;;5096076;28;20032;-68
2021/04/30 08:19:00;;;;;;;11.45;9.20;;;973.20;588.80;;;;;;5095842;28;20028;-69
2021/04/30 08:21:27;;;;;;;11.52;8.13;;;922.00;614.40;;;;;;5096011;28;20024;-66
2021/04/30 08:23:52;;;;;;;13.93;10.13;;;896.70;640.00;;;;;;5096045;28;20028;-68
2021/04/30 08:26:18;;;;;;;12.50;9.40;;;845.50;793.60;;;;;;5095573;28;20039;-63
2021/04/30 08:28:44;;;;;;;11.40;10.20;;;820.10;793.60;;;;;;5095603;28;20047;-66
2021/04/30 08:31:10;;;;;;;10.77;8.30;;;845.20;742.40;;;;;;5078238;28;20110;-65
2021/04/30 08:33:36;;;;;;;13.32;8.32;;;820.00;768.00;;;;;;5096105;28;20024;-66
2021/04/30 08:36:01;;;;;;;15.07;8.15;;;819.50;793.60;;;;;;5095751;28;20093;-65
2021/04/30 08:41:49;;;;;;;12.40;7.03;;;793.70;844.80;;;;;;5095921;28;20398;-67
2021/04/30 08:44:16;;;;;;;8.07;5.50;;;768.50;819.20;;;;;;5095262;28;20046;-67
2021/04/30 08:46:43;;;;;;;6.65;4.30;;;768.00;793.60;;;;;;5095258;28;20485;-67
2021/04/30 08:49:10;;;;;;;12.55;6.32;;;768.30;768.00;;;;;;5095233;28;20028;-67
2021/04/30 08:51:38;;;;;;;7.80;4.57;;;768.70;819.20;;;;;;5095500;28;20028;-67
2021/04/30 08:54:05;;;;;;;7.40;4.78;;;768.20;742.40;;;;;;5095752;28;20042;-67
2021/04/30 08:56:31;;;;;;;7.22;4.82;;;768.60;793.60;;;;;;5095022;28;20027;-66
2021/04/30 08:58:57;;;;;;;6.68;4.70;;;768.10;768.00;;;;;;5095404;28;20020;-66
2021/04/30 09:01:23;;;;;;;9.13;5.20;;;768.10;819.20;;;;;;5095212;28;20466;-67
2021/04/30 09:03:51;;;;;;;6.45;3.67;;;768.50;793.60;;;;;;5094882;28;20052;-67
2021/04/30 09:12:41;;;;;;;8.82;4.60;;;742.70;819.20;;;;;;5095130;28;20039;-66
2021/04/30 09:15:18;;;;;;;18.83;13.43;;;742.90;819.20;;;;;;5095069;28;20035;-67
2021/04/30 09:17:45;;;;;;;9.23;5.35;;;743.00;819.20;;;;;;5094890;28;20469;-67
2021/04/30 09:20:11;;;;;;;8.25;3.92;;;743.10;819.20;;;;;;5094789;28;20073;-67
2021/04/30 09:22:41;;;;;;;6.30;4.32;;;742.40;870.40;;;;;;5094729;28;20028;-67
2021/04/30 09:25:07;;;;;;;6.40;4.22;;;742.40;870.40;;;;;;5094812;28;20115;-66
2021/04/30 09:27:44;;;;;;;7.15;3.97;;;717.50;844.80;;;;;;5094343;28;20032;-66
2021/04/30 09:30:19;;;;;;;14.00;11.48;;;742.50;870.40;;;;;;5094572;28;20394;-65
2021/04/30 09:33:10;;;;;;;8.10;4.82;;;742.80;896.00;;;;;;5094752;28;20034;-66
2021/04/30 09:35:46;;;;;;;8.50;5.05;;;742.40;870.40;;;;;;5094463;28;20020;-65
2021/04/30 09:38:34;;;;;;;10.90;4.25;;;717.50;844.80;;;;;;5094238;28;20032;-66
2021/04/30 09:41:00;;;;;;;8.43;3.70;;;742.50;896.00;;;;;;5094358;28;20023;-66
2021/04/30 09:43:27;;;;;;;7.82;3.88;;;742.50;844.80;;;;;;5094696;28;20028;-66
2021/04/30 09:45:53;;;;;;;9.27;4.10;;;742.60;870.40;;;;;;5094133;28;20492;-65
2021/04/30 09:48:18;;;;;;;8.95;4.15;;;717.50;870.40;;;;;;5095068;28;20020;-65
2021/04/30 09:50:45;;;;;;;8.10;4.03;;;742.40;870.40;;;;;;5094766;28;20032;-66
2021/04/30 09:53:13;;;;;;;14.07;4.43;;;742.60;870.40;;;;;;5094078;28;20024;-66
2021/04/30 09:55:51;;;;;;;7.47;4.78;;;742.80;844.80;;;;;;5094162;28;20031;-67
2021/04/30 09:58:20;;;;;;;8.32;4.22;;;742.40;896.00;;;;;;5094095;28;20032;-66
2021/04/30 10:00:51;;;;;;;6.95;3.92;;;742.90;870.40;;;;;;5093863;28;20024;-67
2021/04/30 10:03:26;;;;;;;10.65;5.18;;;742.80;870.40;;;;;;5085233;28;20045;-66
2021/04/30 10:06:13;;;;;;;7.95;4.57;;;742.60;870.40;;;;;;5073676;28;20021;-66
2021/04/30 10:08:40;;;;;;;14.30;4.43;;;742.50;870.40;;;;;;5074016;28;20086;-67
2021/04/30 10:11:33;;;;;;;8.13;5.05;;;742.80;870.40;;;;;;5073464;28;20017;-67
2021/04/30 10:14:00;;;;;;;6.43;4.05;;;743.10;844.80;;;;;;5073352;28;20020;-66
2021/04/30 10:16:26;;;;;;;13.98;5.20;;;743.30;819.20;;;;;;5073541;28;20032;-67
2021/04/30 10:18:52;;;;;;;10.02;4.40;;;743.00;844.80;;;;;;5073351;28;20032;-66
2021/04/30 10:21:18;;;;;;;10.52;5.55;;;743.00;844.80;;;;;;5072986;28;20083;-67
2021/04/30 10:23:49;;;;;;;8.55;6.82;;;743.00;844.80;;;;;;5070336;28;20039;-66
2021/04/30 10:26:19;;;;;;;8.30;4.38;;;768.10;819.20;;;;;;5070192;28;20398;-66
2021/04/30 10:28:52;;;;;;;6.70;3.67;;;743.10;819.20;;;;;;5070065;28;20094;-68
2021/04/30 10:31:33;;;;;;;9.52;5.00;;;742.60;844.80;;;;;;5070058;28;20369;-66
2021/04/30 10:34:04;;;;;;;6.20;4.20;;;742.80;844.80;;;;;;5069987;28;20108;-66
2021/04/30 10:36:35;;;;;;;6.30;3.97;;;742.90;870.40;;;;;;5070349;28;20020;-66
2021/04/30 10:39:03;;;;;;;7.10;4.55;;;742.80;844.80;;;;;;5069668;28;20021;-66
2021/04/30 10:41:37;;;;;;;8.10;3.97;;;742.90;870.40;;;;;;5069949;28;20360;-66
2021/04/30 10:44:27;;;;;;;8.00;5.63;;;768.00;844.80;;;;;;5070184;28;20028;-66
2021/04/30 10:47:16;;;;;;;8.20;5.97;;;743.10;844.80;;;;;;5069983;28;20043;-66
2021/04/30 10:49:43;;;;;;;8.10;3.90;;;743.00;844.80;;;;;;5070033;28;20029;-68
2021/04/30 10:52:23;;;;;;;8.25;4.05;;;742.70;819.20;;;;;;5069834;28;20032;-67
2021/04/30 10:55:12;;;;;;;6.82;4.47;;;742.50;844.80;;;;;;5070314;28;20067;-68
2021/04/30 10:57:57;;;;;;;7.55;4.45;;;742.40;896.00;;;;;;5070098;28;20066;-67
2021/04/30 11:00:44;;;;;;;6.25;4.32;;;742.60;896.00;;;;;;5070206;28;20024;-66
2021/04/30 11:03:13;;;;;;;5.75;3.65;;;742.60;870.40;;;;;;5077254;28;20409;-68
2021/04/30 11:05:51;;;;;;;8.65;4.10;;;717.70;921.60;;;;;;5089993;28;20024;-66
2021/04/30 11:08:16;;;;;;;9.30;4.40;;;717.30;947.20;;;;;;5090100;28;20028;-66
2021/04/30 11:10:42;;;;;;;11.82;4.95;;;717.50;947.20;;;;;;5090413;28;20500;-67
2021/04/30 11:13:14;;;;;;;9.63;4.15;;;717.70;947.20;;;;;;5089964;28;20507;-66
2021/04/30 11:15:45;;;;;;;9.55;5.75;;;717.40;947.20;;;;;;5090030;28;20523;-67
2021/04/30 11:18:25;;;;;;;9.35;4.80;;;717.60;972.80;;;;;;5090119;28;20042;-66
2021/04/30 11:21:03;;;;;;;7.07;5.13;;;717.70;972.80;;;;;;5090135;28;20526;-66
2021/04/30 11:23:39;;;;;;;7.07;4.30;;;716.90;998.40;;;;;;5089802;28;20059;-66
2021/04/30 11:26:07;;;;;;;7.47;4.80;;;717.20;972.80;;;;;;5089986;28;20648;-66
2021/04/30 11:28:33;;;;;;;7.53;4.38;;;717.20;947.20;;;;;;5089856;28;20028;-66
2021/04/30 11:31:16;;;;;;;7.57;4.70;;;717.10;972.80;;;;;;5089840;28;20070;-65
2021/04/30 11:34:20;;;;;;;10.82;5.05;;;692.00;998.40;;;;;;5089788;28;20059;-66
2021/04/30 11:36:55;;;;;;;8.63;4.32;;;716.80;998.40;;;;;;5089531;28;20115;-67
2021/04/30 11:39:24;;;;;;;7.65;4.80;;;716.80;998.40;;;;;;5089949;28;20103;-66
2021/04/30 11:41:55;;;;;;;7.97;3.75;;;717.10;972.80;;;;;;5089687;28;20103;-66
2021/04/30 11:44:20;;;;;;;9.32;4.22;;;716.90;972.80;;;;;;5089971;28;20020;-66
2021/04/30 11:46:58;;;;;;;6.60;4.45;;;717.10;998.40;;;;;;5089307;28;20043;-66
2021/04/30 11:49:24;;;;;;;5.93;3.90;;;717.10;947.20;;;;;;5091173;28;20047;-66
2021/04/30 11:51:50;;;;;;;8.27;4.55;;;717.30;972.80;;;;;;5093445;28;20454;-66
2021/04/30 11:54:40;;;;;;;8.18;4.80;;;717.40;972.80;;;;;;5093439;28;20024;-66
2021/04/30 11:57:07;;;;;;;9.07;4.93;;;717.10;972.80;;;;;;5011149;28;20404;-66
2021/04/30 11:59:37;;;;;;;8.13;4.38;;;716.90;972.80;;;;;;5011367;28;20030;-66
2021/04/30 12:02:10;;;;;;;9.05;4.80;;;717.10;998.40;;;;;;5011260;28;20136;-64
2021/04/30 12:04:43;;;;;;;;;;;717.40;972.80;;;;;;5011156;28;20054;-65
2021/04/30 12:07:12;;;;;;;9.25;4.53;;;717.20;972.80;;;;;;5011013;28;19913;-65
2021/04/30 12:09:38;;;;;;;9.43;4.97;;;716.90;972.80;;;;;;5011265;28;20586;-66
2021/04/30 12:12:11;;;;;;;10.32;5.50;;;717.40;921.60;;;;;;5011026;28;20029;-66
2021/04/30 12:14:46;;;;;;;6.72;3.83;;;717.10;947.20;;;;;;5010713;28;20152;-64
2021/04/30 12:17:23;;;;;;;7.28;4.90;;;717.50;972.80;;;;;;5011069;28;20030;-68
2021/04/30 12:20:07;;;;;;;7.78;3.85;;;717.30;947.20;;;;;;5010985;28;20064;-66
2021/04/30 12:22:33;;;;;;;11.75;4.80;;;717.50;921.60;;;;;;5010892;28;20040;-65
2021/04/30 12:25:23;;;;;;;9.85;4.18;;;717.20;921.60;;;;;;5010427;28;20030;-65
2021/04/30 12:27:50;;;;;;;5.97;4.25;;;717.20;947.20;;;;;;5010535;28;20050;-65
2021/04/30 12:30:30;;;;;;;5.30;3.67;;;717.10;947.20;;;;;;5010668;28;20028;-66
2021/04/30 12:32:58;;;;;;;9.60;3.10;;;717.20;947.20;;;;;;5012030;28;20026;-65
2021/04/30 12:35:24;;;;;;;10.52;4.22;;;717.50;896.00;;;;;;5069042;28;20108;-65